ブラザヴィル の空港の天気 - METARとTAF

ブラザビル/マヤマヤ空港 ( FCBB / BZV ) - コンゴ共和国 ブラザヴィル
飛行場実況気象(Metar)
観測時間04/15 05:00 WAT (04/15 04:00 UTC)
風向・風速南西 1m/s
視程9000m
天気現象
なし
気温23℃
湿度94%
気圧1011hPa
METARFCBB 150400Z 23001KT 9000 NSC 23/22 Q1011 NOSIG
過去の天気等 Google飛行場航空写真 Wunderground天気予報

過去48時間のMETAR

飛行場予報(TAF)
発表時間: 4/15 06:00 WAT (4/15 05:00 UTC)
予報対象時間: 15日7時 WAT ~ 16日13時 WAT
風向・風速西 2m/s
視程10km以上
少しの雲 雲底高度 610m
15日13時 WAT ~ 15日15時 WAT に徐々に
少しの雲 雲底高度 670m
少しの積乱雲 雲底高度 910m
15日17時 WAT から 確率 30% で
天気現象
16日0時 WAT ~ 15日2時 WAT に徐々に
少しの雲 雲底高度 460m
TAF FCBB 150500Z 1506/1612 26003KT 9999 FEW020
BECMG 1512/1514 FEW022 FEW030CB
PROB30 1516/1521 TS
BECMG 1523/1501 FEW015